createdAt,value
2019-06-07T00:01:58.824Z,101082.52
2019-06-07T00:04:30.463Z,101082.52
2019-06-07T00:07:01.827Z,101091.86
2019-06-07T00:09:33.280Z,101080.73
2019-06-07T00:12:04.872Z,101072.77
2019-06-07T00:14:36.278Z,101077.13
2019-06-07T00:17:08.453Z,101086.50
2019-06-07T00:19:40.911Z,101079.91
2019-06-07T00:22:18.526Z,101081.57
2019-06-07T00:24:45.439Z,101081.03
2019-06-07T00:27:18.264Z,101080.96
2019-06-07T00:29:49.841Z,101089.77
2019-06-07T00:32:21.980Z,101088.81
2019-06-07T00:34:53.635Z,101089.27
2019-06-07T00:37:25.619Z,101082.30
2019-06-07T00:40:13.447Z,101091.17
2019-06-07T00:42:31.193Z,101092.92
2019-06-07T00:45:02.574Z,101092.09
2019-06-07T00:47:34.102Z,101091.47
2019-06-07T00:50:05.589Z,101089.57
2019-06-07T00:55:14.824Z,101084.33
2019-06-07T00:57:44.146Z,101093.95
2019-06-07T01:00:18.336Z,101096.16
2019-06-07T01:02:48.711Z,101091.80
2019-06-07T01:05:28.098Z,101096.77
2019-06-07T01:07:54.149Z,101094.95
2019-06-07T01:10:51.624Z,101090.63
2019-06-07T01:12:58.476Z,101089.00
2019-06-07T01:15:29.918Z,101090.52
2019-06-07T01:18:33.729Z,101088.44
2019-06-07T01:20:34.233Z,101095.08
2019-06-07T01:23:05.525Z,101099.14
2019-06-07T01:25:36.836Z,101102.67
2019-06-07T01:28:08.167Z,101095.08
2019-06-07T01:30:39.582Z,101084.79
2019-06-07T01:33:10.787Z,101090.60
2019-06-07T01:35:42.097Z,101085.82
2019-06-07T01:38:13.442Z,101093.83
2019-06-07T01:40:44.817Z,101094.58
2019-06-07T01:43:17.014Z,101096.75
2019-06-07T01:45:50.765Z,101088.24
2019-06-07T01:48:25.373Z,101094.09
2019-06-07T01:50:55.060Z,101099.97
2019-06-07T01:53:28.486Z,101100.05
2019-06-07T01:55:59.279Z,101099.26
2019-06-07T01:58:30.567Z,101099.75
2019-06-07T02:01:01.883Z,101093.68
2019-06-07T02:03:33.611Z,101099.98
2019-06-07T02:06:05.244Z,101090.77
2019-06-07T02:08:36.577Z,101102.34
2019-06-07T02:11:07.851Z,101094.52
2019-06-07T02:13:39.166Z,101092.73
2019-06-07T02:16:10.506Z,101094.55
2019-06-07T02:19:00.672Z,101110.58
2019-06-07T02:21:14.830Z,101105.38
2019-06-07T02:23:46.069Z,101106.74
2019-06-07T02:26:17.456Z,101110.77
2019-06-07T02:28:48.714Z,101105.91
2019-06-07T02:31:21.760Z,101109.09
2019-06-07T02:33:52.921Z,101109.59
2019-06-07T02:36:28.880Z,101107.38
2019-06-07T02:38:57.324Z,101109.17
2019-06-07T02:41:33.337Z,101110.95
2019-06-07T02:44:01.596Z,101109.59
2019-06-07T02:46:44.707Z,101116.23
2019-06-07T02:49:06.922Z,101113.12
2019-06-07T02:51:41.564Z,101109.66
2019-06-07T02:54:11.199Z,101107.04
2019-06-07T02:56:56.715Z,101111.48
2019-06-07T02:59:15.425Z,101113.73
2019-06-07T03:01:46.716Z,101112.92
2019-06-07T03:04:20.137Z,101104.08
2019-06-07T03:06:51.641Z,101100.99
2019-06-07T03:09:23.015Z,101097.05
2019-06-07T03:11:54.847Z,101098.37
2019-06-07T03:14:28.521Z,101099.32
2019-06-07T03:17:07.590Z,101102.39
2019-06-07T03:19:41.894Z,101100.23
2019-06-07T03:22:13.079Z,101102.92
2019-06-07T03:24:45.961Z,101095.41
2019-06-07T03:27:34.703Z,101095.41
2019-06-07T03:29:50.239Z,101098.06
2019-06-07T03:32:47.468Z,101106.11
2019-06-07T03:35:15.838Z,101099.88
2019-06-07T03:37:47.327Z,101099.50
2019-06-07T03:40:18.595Z,101107.09
2019-06-07T03:42:49.880Z,101108.04
2019-06-07T03:45:21.368Z,101108.95
2019-06-07T03:47:52.625Z,101107.20
2019-06-07T03:50:23.977Z,101109.44
2019-06-07T03:52:55.255Z,101109.90
2019-06-07T03:55:27.827Z,101099.27
2019-06-07T03:58:30.599Z,101115.33
2019-06-07T04:00:34.899Z,101113.61
2019-06-07T04:03:05.377Z,101106.96
2019-06-07T04:05:41.293Z,101111.48
2019-06-07T04:08:09.586Z,101115.54
2019-06-07T04:10:57.903Z,101113.75
2019-06-07T04:13:15.014Z,101118.23
2019-06-07T04:15:46.694Z,101118.23
2019-06-07T04:18:18.146Z,101118.72
2019-06-07T04:20:49.367Z,101134.30
2019-06-07T04:23:31.335Z,101133.88
2019-06-07T04:25:53.553Z,101140.53
2019-06-07T04:29:16.550Z,101147.22
2019-06-07T04:30:57.643Z,101148.13
2019-06-07T04:33:31.198Z,101145.50
2019-06-07T04:36:04.337Z,101144.17
2019-06-07T04:38:40.016Z,101149.53
2019-06-07T04:41:09.706Z,101151.36
2019-06-07T04:43:42.825Z,101160.70
2019-06-07T04:46:14.213Z,101164.70
2019-06-07T04:48:46.432Z,101156.26
2019-06-07T04:51:18.096Z,101159.86
2019-06-07T04:53:49.196Z,101154.58
2019-06-07T04:56:20.449Z,101146.59
2019-06-07T04:58:51.742Z,101164.84
2019-06-07T05:01:27.684Z,101151.11
2019-06-07T05:03:56.304Z,101157.77
2019-06-07T05:06:27.579Z,101152.02
2019-06-07T05:08:58.746Z,101152.86
2019-06-07T05:11:31.615Z,101150.27
2019-06-07T05:14:03.003Z,101159.62
2019-06-07T05:16:36.835Z,101160.46
2019-06-07T05:19:07.140Z,101150.69
2019-06-07T05:22:02.107Z,101150.73
2019-06-07T05:24:11.275Z,101148.09
2019-06-07T05:26:42.947Z,101153.95
2019-06-07T05:29:14.286Z,101148.20
2019-06-07T05:31:45.780Z,101151.77
2019-06-07T05:34:17.123Z,101158.88
2019-06-07T05:37:10.574Z,101152.69
2019-06-07T05:39:21.268Z,101145.19
2019-06-07T05:41:52.807Z,101149.70
2019-06-07T05:44:23.984Z,101153.31
2019-06-07T05:46:55.247Z,101152.50
2019-06-07T05:49:26.646Z,101158.35
2019-06-07T05:51:57.921Z,101156.18
2019-06-07T05:54:29.128Z,101155.80
2019-06-07T05:57:00.332Z,101161.64
2019-06-07T05:59:33.347Z,101172.32
2019-06-07T06:02:21.825Z,101166.09
2019-06-07T06:04:40.241Z,101169.27
2019-06-07T06:07:10.738Z,101169.73
2019-06-07T06:09:43.301Z,101167.55
2019-06-07T06:12:33.417Z,101160.89
2019-06-07T06:14:48.758Z,101157.36
2019-06-07T06:17:19.938Z,101156.06
2019-06-07T06:19:53.442Z,101151.25
2019-06-07T06:22:24.092Z,101150.90
2019-06-07T06:25:30.128Z,101146.13
2019-06-07T06:28:03.075Z,101154.67
2019-06-07T06:30:01.180Z,101161.42
2019-06-07T06:32:44.036Z,101157.98
2019-06-07T06:35:06.049Z,101151.38
2019-06-07T06:37:40.330Z,101148.36
2019-06-07T06:40:11.602Z,101147.58
2019-06-07T06:42:44.883Z,101146.44
2019-06-07T06:45:16.007Z,101146.50
2019-06-07T06:47:50.304Z,101140.35
2019-06-07T06:50:20.870Z,101140.41
2019-06-07T06:52:54.686Z,101140.95
2019-06-07T06:55:24.949Z,101134.35
2019-06-07T06:57:56.164Z,101133.05
2019-06-07T07:00:53.745Z,101137.59
2019-06-07T07:05:54.756Z,101135.08
2019-06-07T07:08:25.314Z,101138.28
2019-06-07T07:10:56.586Z,101146.25
2019-06-07T07:13:27.795Z,101135.53
2019-06-07T07:15:59.008Z,101136.95
2019-06-07T07:18:30.353Z,101137.92
2019-06-07T07:21:01.524Z,101138.48
2019-06-07T07:23:32.841Z,101142.14
2019-06-07T07:26:04.132Z,101139.13
2019-06-07T07:28:35.379Z,101142.34
2019-06-07T07:31:06.689Z,101128.50
2019-06-07T07:34:23.921Z,101123.16
2019-06-07T07:36:28.686Z,101116.58
2019-06-07T07:38:45.622Z,101121.17
2019-06-07T07:41:16.772Z,101121.31
2019-06-07T07:43:54.463Z,101111.23
2019-06-07T07:46:28.969Z,101112.20
2019-06-07T07:48:56.078Z,101116.27
2019-06-07T07:51:27.473Z,101113.73
2019-06-07T07:54:10.216Z,101102.26
2019-06-07T07:56:31.523Z,101100.59
2019-06-07T07:59:03.199Z,101094.90
2019-06-07T08:01:34.539Z,101096.33
2019-06-07T08:04:05.729Z,101097.29
2019-06-07T08:06:36.930Z,101104.95
2019-06-07T08:09:08.800Z,101097.95
2019-06-07T08:11:40.075Z,101106.52
2019-06-07T08:14:11.243Z,101108.39
2019-06-07T08:16:42.457Z,101103.52
2019-06-07T08:19:13.655Z,101100.93
2019-06-07T08:21:44.807Z,101100.47
2019-06-07T08:24:15.982Z,101105.83
2019-06-07T08:27:12.405Z,101098.34
2019-06-07T08:29:20.144Z,101092.59
2019-06-07T08:31:54.419Z,101086.39
2019-06-07T08:34:24.235Z,101077.52
2019-06-07T08:36:59.163Z,101077.11
2019-06-07T08:39:28.746Z,101078.48
2019-06-07T08:42:14.776Z,101073.23
2019-06-07T08:44:32.903Z,101067.91
2019-06-07T08:47:19.980Z,101065.25
2019-06-07T08:49:38.436Z,101067.05
2019-06-07T08:52:12.180Z,101062.13
2019-06-07T08:54:42.743Z,101054.13
2019-06-07T08:57:21.159Z,101057.23
2019-06-07T08:59:47.055Z,101054.67
2019-06-07T09:02:23.928Z,101051.14
2019-06-07T09:04:54.678Z,101055.67
2019-06-07T09:07:24.267Z,101054.80
2019-06-07T09:10:03.479Z,101042.80
2019-06-07T09:12:28.724Z,101044.19
2019-06-07T09:15:16.372Z,101046.53
2019-06-07T09:17:34.162Z,101039.92
2019-06-07T09:20:15.391Z,101031.56
2019-06-07T09:22:39.209Z,101031.18
2019-06-07T09:25:20.522Z,101033.94
2019-06-07T09:27:43.843Z,101024.62
2019-06-07T09:30:18.994Z,101022.42
2019-06-07T09:32:49.491Z,101022.42
2019-06-07T09:35:20.797Z,101011.31
2019-06-07T09:38:07.838Z,101014.96
2019-06-07T09:40:30.166Z,101006.59
2019-06-07T09:43:47.469Z,101007.99
2019-06-07T09:45:34.356Z,101009.46
2019-06-07T09:48:12.610Z,101006.85
2019-06-07T09:50:38.552Z,101003.34
2019-06-07T09:53:21.711Z,100999.83
2019-06-07T09:55:43.564Z,100999.85
2019-06-07T09:58:50.208Z,100998.55
2019-06-07T10:00:47.790Z,100995.92
2019-06-07T10:03:22.417Z,100989.69
2019-06-07T10:06:00.393Z,100982.16
2019-06-07T10:11:05.099Z,100986.73
2019-06-07T10:13:36.385Z,100989.48
2019-06-07T10:16:08.800Z,100990.42
2019-06-07T10:18:39.996Z,100985.14
2019-06-07T10:21:15.216Z,100981.18
2019-06-07T10:23:44.163Z,100978.09
2019-06-07T10:26:15.363Z,100969.19
2019-06-07T10:28:46.525Z,100965.66
2019-06-07T10:31:17.721Z,100970.16
2019-06-07T10:33:49.443Z,100966.16
2019-06-07T10:36:20.585Z,100970.22
2019-06-07T10:38:51.810Z,100966.21
2019-06-07T10:41:23.396Z,100964.02
2019-06-07T10:43:54.666Z,100959.19
2019-06-07T10:46:25.840Z,100965.91
2019-06-07T10:48:57.121Z,100967.30
2019-06-07T10:51:28.305Z,100966.91
2019-06-07T10:53:59.502Z,100964.70
2019-06-07T10:56:30.797Z,100970.50
2019-06-07T10:59:03.092Z,100975.91
2019-06-07T11:01:34.401Z,100963.45
2019-06-07T11:04:07.781Z,100967.04
2019-06-07T11:06:39.054Z,100963.48
2019-06-07T11:09:10.271Z,100954.61
2019-06-07T11:11:41.558Z,100956.85
2019-06-07T11:14:12.797Z,100950.17
2019-06-07T11:16:43.961Z,100952.88
2019-06-07T11:19:17.716Z,100955.56
2019-06-07T11:21:48.103Z,100950.66
2019-06-07T11:24:24.422Z,100952.47
2019-06-07T11:26:52.306Z,100939.51
2019-06-07T11:29:23.502Z,100931.48
2019-06-07T11:31:55.816Z,100939.98
2019-06-07T11:34:27.031Z,100935.98
2019-06-07T11:36:58.164Z,100927.03
2019-06-07T11:39:29.356Z,100930.19
2019-06-07T11:42:00.529Z,100922.55
2019-06-07T11:44:31.738Z,100913.62
2019-06-07T11:47:02.893Z,100906.03
2019-06-07T11:49:34.137Z,100905.11
2019-06-07T11:52:05.364Z,100902.87
2019-06-07T11:54:36.547Z,100889.00
2019-06-07T11:57:08.846Z,100891.25
2019-06-07T11:59:40.121Z,100880.48
2019-06-07T12:02:11.515Z,100872.41
2019-06-07T12:04:42.847Z,100867.45
2019-06-07T12:07:15.815Z,100857.16
2019-06-07T12:09:56.402Z,100859.38
2019-06-07T12:12:21.915Z,100852.62
2019-06-07T12:14:53.252Z,100854.36
2019-06-07T12:17:24.454Z,100853.44
2019-06-07T12:19:55.726Z,100856.48
2019-06-07T12:22:27.036Z,100839.45
2019-06-07T12:24:58.459Z,100842.06
2019-06-07T12:27:29.753Z,100839.75
2019-06-07T12:30:09.206Z,100832.98
2019-06-07T12:32:34.100Z,100827.99
2019-06-07T12:35:06.083Z,100830.63
2019-06-07T12:37:43.869Z,100819.80
2019-06-07T12:40:15.895Z,100816.59
2019-06-07T12:42:44.141Z,100817.02
2019-06-07T12:45:37.736Z,100815.14
2019-06-07T12:47:48.530Z,100809.66
2019-06-07T12:50:19.878Z,100801.95
2019-06-07T12:52:51.488Z,100798.73
2019-06-07T12:55:24.711Z,100792.83
2019-06-07T12:57:56.382Z,100784.23
2019-06-07T13:00:27.757Z,100789.52
2019-06-07T13:02:58.974Z,100779.08
2019-06-07T13:05:30.151Z,100790.28
2019-06-07T13:08:01.367Z,100774.03
2019-06-07T13:10:32.733Z,100773.99
2019-06-07T13:13:04.079Z,100769.45
2019-06-07T13:15:35.260Z,100771.19
2019-06-07T13:18:06.583Z,100767.12
2019-06-07T13:20:37.827Z,100762.71
2019-06-07T13:23:09.116Z,100758.23
2019-06-07T13:25:46.235Z,100761.36
2019-06-07T13:28:13.239Z,100765.30
2019-06-07T13:30:44.488Z,100762.93
2019-06-07T13:33:16.876Z,100763.19
2019-06-07T13:35:48.096Z,100761.75
2019-06-07T13:38:26.281Z,100757.08
2019-06-07T13:40:57.531Z,100749.75
2019-06-07T13:43:28.809Z,100744.74
2019-06-07T13:46:00.004Z,100731.58
2019-06-07T13:48:31.308Z,100735.92
2019-06-07T13:51:02.545Z,100736.15
2019-06-07T13:53:34.794Z,100743.16
2019-06-07T13:56:06.044Z,100735.86
2019-06-07T13:58:37.219Z,100736.69
2019-06-07T14:01:08.445Z,100741.02
2019-06-07T14:03:39.647Z,100732.84
2019-06-07T14:06:10.845Z,100731.81
2019-06-07T14:08:42.018Z,100732.67
2019-06-07T14:11:13.168Z,100732.26
2019-06-07T14:13:44.398Z,100728.63
2019-06-07T14:16:15.571Z,100728.20
2019-06-07T14:18:46.765Z,100720.20
2019-06-07T14:21:17.956Z,100723.42
2019-06-07T14:23:49.590Z,100718.92
2019-06-07T14:26:21.267Z,100707.19
2019-06-07T14:28:52.525Z,100698.59
2019-06-07T14:31:24.557Z,100698.55
2019-06-07T14:33:56.216Z,100699.42
2019-06-07T14:36:28.817Z,100706.62
2019-06-07T14:39:00.070Z,100701.22
2019-06-07T14:41:33.551Z,100698.56
2019-06-07T14:44:05.168Z,100706.28
2019-06-07T14:46:36.343Z,100695.96
2019-06-07T14:49:07.576Z,100695.03
2019-06-07T14:51:38.893Z,100699.91
2019-06-07T14:54:10.729Z,100692.62
2019-06-07T14:56:42.373Z,100691.28
2019-06-07T14:59:13.688Z,100683.59
2019-06-07T15:01:45.015Z,100685.73
2019-06-07T15:04:16.318Z,100688.73
2019-06-07T15:06:47.580Z,100683.17
2019-06-07T15:09:18.800Z,100678.59
2019-06-07T15:11:50.039Z,100676.74
2019-06-07T15:14:21.203Z,100678.09
2019-06-07T15:16:52.405Z,100678.92
2019-06-07T15:19:24.241Z,100680.23
2019-06-07T15:21:55.807Z,100670.28
2019-06-07T15:24:28.104Z,100673.35
2019-06-07T15:26:59.320Z,100667.82
2019-06-07T15:29:31.700Z,100664.91
2019-06-07T15:32:03.122Z,100660.77
2019-06-07T15:34:34.390Z,100665.56
2019-06-07T15:37:05.577Z,100663.27
2019-06-07T15:39:38.788Z,100661.78
2019-06-07T15:42:10.125Z,100666.66
2019-06-07T15:44:41.354Z,100659.56
2019-06-07T15:47:12.548Z,100663.80
2019-06-07T15:49:43.786Z,100664.91
2019-06-07T15:52:14.945Z,100653.41
2019-06-07T15:54:46.125Z,100654.37
2019-06-07T15:57:17.358Z,100657.20
2019-06-07T15:59:48.793Z,100659.55
2019-06-07T16:02:21.069Z,100655.12
2019-06-07T16:04:52.352Z,100653.77
2019-06-07T16:07:23.530Z,100653.32
2019-06-07T16:09:55.213Z,100652.95
2019-06-07T16:12:26.910Z,100648.60
2019-06-07T16:14:59.369Z,100642.00
2019-06-07T16:17:30.863Z,100642.98
2019-06-07T16:20:02.819Z,100638.52
2019-06-07T16:22:35.658Z,100636.26
2019-06-07T16:25:08.226Z,100635.40
2019-06-07T16:27:40.634Z,100631.80
2019-06-07T16:30:12.263Z,100634.49
2019-06-07T16:32:44.216Z,100625.08
2019-06-07T16:35:16.743Z,100625.64
2019-06-07T16:37:51.587Z,100621.73
2019-06-07T16:40:20.877Z,100616.00
2019-06-07T16:42:52.113Z,100612.52
2019-06-07T16:45:23.638Z,100611.31
2019-06-07T16:47:54.861Z,100610.55
2019-06-07T16:50:26.090Z,100606.20
2019-06-07T16:52:57.289Z,100602.66
2019-06-07T16:55:28.475Z,100605.92
2019-06-07T16:57:59.690Z,100610.04
2019-06-07T17:00:30.893Z,100596.65
2019-06-07T17:03:03.847Z,100589.97
2019-06-07T17:05:35.665Z,100598.61
2019-06-07T17:08:06.952Z,100596.53
2019-06-07T17:10:38.278Z,100581.82
2019-06-07T17:13:09.652Z,100568.39
2019-06-07T17:15:40.852Z,100548.64
2019-06-07T17:18:12.124Z,100523.50
2019-06-07T17:20:43.352Z,100511.43
2019-06-07T17:23:14.582Z,100496.62
2019-06-07T17:25:45.765Z,100503.78
2019-06-07T17:28:17.004Z,100504.69
2019-06-07T17:30:48.433Z,100502.89
2019-06-07T17:33:19.819Z,100506.45
2019-06-07T17:35:50.985Z,100510.43
2019-06-07T17:38:22.270Z,100515.27
2019-06-07T17:40:53.557Z,100512.02
2019-06-07T17:43:24.828Z,100511.84
2019-06-07T17:45:56.106Z,100511.21
2019-06-07T17:48:27.300Z,100512.83
2019-06-07T17:50:58.450Z,100522.53
2019-06-07T17:53:30.597Z,100517.09
2019-06-07T17:56:02.067Z,100511.17
2019-06-07T17:58:34.038Z,100513.02
2019-06-07T18:01:05.476Z,100507.23
2019-06-07T18:03:38.423Z,100517.66
2019-06-07T18:06:09.876Z,100518.64
2019-06-07T18:08:41.062Z,100517.44
2019-06-07T18:11:12.262Z,100514.36
2019-06-07T18:13:44.012Z,100513.56
2019-06-07T18:16:15.460Z,100515.03
2019-06-07T18:18:46.710Z,100505.27
2019-06-07T18:21:17.963Z,100487.39
2019-06-07T18:23:50.309Z,100486.60
2019-06-07T18:26:22.695Z,100488.09
2019-06-07T18:28:54.678Z,100487.29
2019-06-07T18:31:26.037Z,100482.48
2019-06-07T18:33:59.243Z,100489.77
2019-06-07T18:36:30.599Z,100482.68
2019-06-07T18:39:01.933Z,100490.83
2019-06-07T18:41:35.387Z,100493.63
2019-06-07T18:44:20.763Z,100503.19
2019-06-07T18:46:39.677Z,100502.28
2019-06-07T18:49:10.881Z,100508.18
2019-06-07T18:51:42.126Z,100507.82
2019-06-07T18:54:13.366Z,100516.03
2019-06-07T18:56:44.554Z,100526.47
2019-06-07T18:59:15.908Z,100522.06
2019-06-07T19:01:47.305Z,100519.00
2019-06-07T19:04:18.572Z,100518.16
2019-06-07T19:06:50.263Z,100520.01
2019-06-07T19:09:21.510Z,100529.94
2019-06-07T19:11:53.154Z,100529.09
2019-06-07T19:14:36.541Z,100535.88
2019-06-07T19:16:57.576Z,100545.36
2019-06-07T19:19:28.876Z,100538.22
2019-06-07T19:22:00.214Z,100540.08
2019-06-07T19:24:31.596Z,100544.57
2019-06-07T19:27:02.874Z,100553.62
2019-06-07T19:29:34.082Z,100554.98
2019-06-07T19:32:05.331Z,100544.74
2019-06-07T19:34:36.575Z,100542.55
2019-06-07T19:37:07.832Z,100547.05
2019-06-07T19:39:39.242Z,100551.14
2019-06-07T19:42:10.631Z,100552.08
2019-06-07T19:44:53.207Z,100553.92
2019-06-07T19:47:14.908Z,100546.34
2019-06-07T19:49:46.281Z,100547.70
2019-06-07T19:52:17.449Z,100549.53
2019-06-07T19:54:48.785Z,100554.52
2019-06-07T19:57:20.024Z,100547.36
2019-06-07T19:59:51.476Z,100544.72
2019-06-07T20:02:23.087Z,100548.77
2019-06-07T20:04:59.174Z,100537.59
2019-06-07T20:07:27.299Z,100537.61
2019-06-07T20:09:58.736Z,100536.78
2019-06-07T20:12:30.064Z,100541.27
2019-06-07T20:15:24.652Z,100539.97
2019-06-07T20:17:34.131Z,100536.86
2019-06-07T20:20:05.754Z,100546.31
2019-06-07T20:22:37.008Z,100546.33
2019-06-07T20:25:09.213Z,100552.19
2019-06-07T20:27:40.778Z,100562.98
2019-06-07T20:30:13.058Z,100565.69
2019-06-07T20:32:44.472Z,100560.37
2019-06-07T20:35:15.984Z,100557.70
2019-06-07T20:37:47.285Z,100559.53
2019-06-07T20:40:24.142Z,100561.34
2019-06-07T20:42:52.054Z,100553.31
2019-06-07T20:45:33.020Z,100547.52
2019-06-07T20:47:58.123Z,100539.05
2019-06-07T20:50:29.597Z,100535.98
2019-06-07T20:53:01.362Z,100536.00
2019-06-07T20:55:33.981Z,100532.45
2019-06-07T20:58:05.556Z,100535.61
2019-06-07T21:00:36.871Z,100538.72
2019-06-07T21:03:09.485Z,100547.27
2019-06-07T21:05:40.950Z,100555.80
2019-06-07T21:08:12.999Z,100566.55
2019-06-07T21:10:44.665Z,100558.98
2019-06-07T21:13:15.891Z,100566.17
2019-06-07T21:15:49.164Z,100568.44
2019-06-07T21:18:20.347Z,100576.08
2019-06-07T21:20:51.592Z,100574.73
2019-06-07T21:23:22.832Z,100574.33
2019-06-07T21:25:54.087Z,100573.45
2019-06-07T21:28:25.268Z,100583.30
2019-06-07T21:31:10.501Z,100600.77
2019-06-07T21:33:42.036Z,100609.28
2019-06-07T21:36:13.304Z,100596.79
2019-06-07T21:38:44.564Z,100588.28
2019-06-07T21:41:15.811Z,100597.23
2019-06-07T21:43:47.140Z,100612.45
2019-06-07T21:46:20.562Z,100612.04
2019-06-07T21:48:51.292Z,100616.52
2019-06-07T21:51:22.497Z,100629.95
2019-06-07T21:53:53.790Z,100640.23
2019-06-07T21:56:24.970Z,100634.88
2019-06-07T21:58:56.226Z,100632.64
2019-06-07T22:01:29.034Z,100634.44
2019-06-07T22:04:00.285Z,100637.12
2019-06-07T22:06:31.499Z,100632.66
2019-06-07T22:09:03.850Z,100630.42
2019-06-07T22:11:35.547Z,100637.12
2019-06-07T22:14:08.434Z,100648.77
2019-06-07T22:16:39.774Z,100649.20
2019-06-07T22:19:12.435Z,100633.53
2019-06-07T22:21:43.910Z,100627.26
2019-06-07T22:24:16.090Z,100613.41
2019-06-07T22:26:47.523Z,100608.05
2019-06-07T22:29:19.351Z,100609.84
2019-06-07T22:31:50.845Z,100610.30
2019-06-07T22:34:22.087Z,100646.98
2019-06-07T22:36:53.371Z,100758.79
2019-06-07T22:39:24.760Z,100791.91
2019-06-07T22:41:56.064Z,100820.47
2019-06-07T22:44:27.343Z,100789.94
2019-06-07T22:46:58.597Z,100805.01
2019-06-07T22:49:29.875Z,100834.76
2019-06-07T22:52:08.553Z,100809.91
2019-06-07T22:54:34.064Z,100818.06
2019-06-07T22:57:12.021Z,100831.95
2019-06-07T22:59:43.350Z,100836.09
2019-06-07T23:02:14.684Z,100837.52
2019-06-07T23:04:45.965Z,100854.11
2019-06-07T23:07:17.236Z,100864.86
2019-06-07T23:09:48.514Z,100869.02
2019-06-07T23:12:19.867Z,100885.67
2019-06-07T23:14:51.111Z,100894.37
2019-06-07T23:17:22.383Z,100897.23
2019-06-07T23:19:53.698Z,100902.00
2019-06-07T23:22:24.970Z,100905.72
2019-06-07T23:24:56.332Z,100903.61
2019-06-07T23:27:27.594Z,100896.41
2019-06-07T23:29:58.992Z,100878.09
2019-06-07T23:32:30.198Z,100887.83
2019-06-07T23:35:01.454Z,100859.36
2019-06-07T23:37:32.785Z,100849.69
2019-06-07T23:40:04.064Z,100866.55
2019-06-07T23:42:35.366Z,100847.80
2019-06-07T23:45:07.387Z,100890.42
2019-06-07T23:47:38.730Z,100928.54
2019-06-07T23:50:11.417Z,100908.94
2019-06-07T23:52:42.940Z,100906.67
2019-06-07T23:55:14.283Z,100918.12
2019-06-07T23:57:45.632Z,100931.91
